sensor_id;sensor_type;location;lat;lon;timestamp;pressure;altitude;pressure_sealevel;temperature;humidity
9899;BME280;4988;49.238;6.698;2023-04-03T00:01:17;100045.50;;;4.43;77.99
9899;BME280;4988;49.238;6.698;2023-04-03T00:03:43;100037.56;;;4.47;77.77
9899;BME280;4988;49.238;6.698;2023-04-03T00:06:09;100046.38;;;4.37;77.04
9899;BME280;4988;49.238;6.698;2023-04-03T00:08:36;100031.47;;;4.38;77.30
9899;BME280;4988;49.238;6.698;2023-04-03T00:11:03;100040.25;;;4.37;76.92
9899;BME280;4988;49.238;6.698;2023-04-03T00:13:29;100044.66;;;4.34;75.39
9899;BME280;4988;49.238;6.698;2023-04-03T00:15:54;100046.38;;;4.37;75.31
9899;BME280;4988;49.238;6.698;2023-04-03T00:18:20;100050.78;;;4.41;74.14
9899;BME280;4988;49.238;6.698;2023-04-03T00:20:46;100052.59;;;4.28;75.58
9899;BME280;4988;49.238;6.698;2023-04-03T00:23:11;100057.00;;;4.28;75.56
9899;BME280;4988;49.238;6.698;2023-04-03T00:25:36;100054.34;;;4.32;76.18
9899;BME280;4988;49.238;6.698;2023-04-03T00:28:03;100055.19;;;4.34;74.86
9899;BME280;4988;49.238;6.698;2023-04-03T00:30:28;100053.41;;;4.41;74.45
9899;BME280;4988;49.238;6.698;2023-04-03T00:32:54;100056.13;;;4.26;73.64
9899;BME280;4988;49.238;6.698;2023-04-03T00:35:20;100053.56;;;4.16;73.15
9899;BME280;4988;49.238;6.698;2023-04-03T00:37:46;100059.69;;;4.14;73.20
9899;BME280;4988;49.238;6.698;2023-04-03T00:40:13;100049.09;;;4.25;73.20
9899;BME280;4988;49.238;6.698;2023-04-03T00:42:40;100050.88;;;4.19;73.73
9899;BME280;4988;49.238;6.698;2023-04-03T00:47:50;100044.75;;;4.21;73.71
9899;BME280;4988;49.238;6.698;2023-04-03T00:50:16;100050.91;;;4.18;73.72
9899;BME280;4988;49.238;6.698;2023-04-03T00:52:42;100047.44;;;4.08;73.91
9899;BME280;4988;49.238;6.698;2023-04-03T00:55:11;100045.69;;;4.06;72.99
9899;BME280;4988;49.238;6.698;2023-04-03T00:57:37;100041.28;;;4.11;73.50
9899;BME280;4988;49.238;6.698;2023-04-03T01:00:09;100037.78;;;4.10;74.35
9899;BME280;4988;49.238;6.698;2023-04-03T01:02:36;100040.38;;;4.16;74.13
9899;BME280;4988;49.238;6.698;2023-04-03T01:05:02;100042.97;;;4.19;73.79
9899;BME280;4988;49.238;6.698;2023-04-03T01:07:29;100036.00;;;4.15;74.27
9899;BME280;4988;49.238;6.698;2023-04-03T01:10:05;100041.25;;;4.15;73.74
9899;BME280;4988;49.238;6.698;2023-04-03T01:12:35;100035.06;;;4.24;73.78
9899;BME280;4988;49.238;6.698;2023-04-03T01:15:13;100038.63;;;4.11;73.56
9899;BME280;4988;49.238;6.698;2023-04-03T01:17:41;100037.75;;;4.12;72.69
9899;BME280;4988;49.238;6.698;2023-04-03T01:25:37;100036.88;;;4.13;73.11
9899;BME280;4988;49.238;6.698;2023-04-03T01:28:04;100036.09;;;3.97;72.80
9899;BME280;4988;49.238;6.698;2023-04-03T01:30:33;100039.56;;;4.02;73.02
9899;BME280;4988;49.238;6.698;2023-04-03T01:32:59;100036.94;;;3.99;74.36
9899;BME280;4988;49.238;6.698;2023-04-03T01:35:25;100040.41;;;4.07;73.20
9899;BME280;4988;49.238;6.698;2023-04-03T01:37:50;100036.91;;;4.08;73.53
9899;BME280;4988;49.238;6.698;2023-04-03T01:40:15;100029.88;;;4.02;73.46
9899;BME280;4988;49.238;6.698;2023-04-03T01:42:41;100033.47;;;3.92;73.48
9899;BME280;4988;49.238;6.698;2023-04-03T01:45:06;100031.72;;;3.88;73.29
9899;BME280;4988;49.238;6.698;2023-04-03T01:47:32;100032.59;;;3.89;73.73
9899;BME280;4988;49.238;6.698;2023-04-03T01:49:57;100036.09;;;3.91;73.88
9899;BME280;4988;49.238;6.698;2023-04-03T01:52:23;100040.44;;;4.01;75.20
9899;BME280;4988;49.238;6.698;2023-04-03T01:54:48;100040.44;;;4.01;75.24
9899;BME280;4988;49.238;6.698;2023-04-03T01:57:13;100047.44;;;4.05;74.03
9899;BME280;4988;49.238;6.698;2023-04-03T01:59:40;100038.69;;;3.98;74.23
9899;BME280;4988;49.238;6.698;2023-04-03T02:02:05;100041.31;;;4.00;74.12
9899;BME280;4988;49.238;6.698;2023-04-03T02:04:31;100045.69;;;4.02;74.20
9899;BME280;4988;49.238;6.698;2023-04-03T02:06:56;100046.59;;;4.03;74.51
9899;BME280;4988;49.238;6.698;2023-04-03T02:09:21;100047.47;;;3.99;74.12
9899;BME280;4988;49.238;6.698;2023-04-03T02:11:47;100041.31;;;4.01;73.59
9899;BME280;4988;49.238;6.698;2023-04-03T02:14:12;100051.84;;;4.00;75.19
9899;BME280;4988;49.238;6.698;2023-04-03T02:16:37;100052.72;;;4.03;75.35
9899;BME280;4988;49.238;6.698;2023-04-03T02:19:03;100047.44;;;4.05;73.94
9899;BME280;4988;49.238;6.698;2023-04-03T02:21:28;100046.56;;;4.01;74.28
9899;BME280;4988;49.238;6.698;2023-04-03T02:23:54;100040.44;;;4.01;75.24
9899;BME280;4988;49.238;6.698;2023-04-03T02:26:19;100045.72;;;3.96;76.64
9899;BME280;4988;49.238;6.698;2023-04-03T02:28:44;100046.63;;;3.89;76.90
9899;BME280;4988;49.238;6.698;2023-04-03T02:31:10;100048.41;;;3.89;76.79
9899;BME280;4988;49.238;6.698;2023-04-03T02:33:36;100036.09;;;3.89;77.02
9899;BME280;4988;49.238;6.698;2023-04-03T02:36:04;100041.44;;;3.75;75.69
9899;BME280;4988;49.238;6.698;2023-04-03T02:38:29;100043.16;;;3.81;76.24
9899;BME280;4988;49.238;6.698;2023-04-03T02:41:06;100050.22;;;3.71;76.09
9899;BME280;4988;49.238;6.698;2023-04-03T02:43:32;100046.69;;;3.70;76.74
9899;BME280;4988;49.238;6.698;2023-04-03T02:45:58;100037.09;;;3.65;76.88
9899;BME280;4988;49.238;6.698;2023-04-03T02:48:24;100038.81;;;3.64;77.11
9899;BME280;4988;49.238;6.698;2023-04-03T02:50:50;100032.69;;;3.64;77.08
9899;BME280;4988;49.238;6.698;2023-04-03T02:53:15;100040.59;;;3.62;77.77
9899;BME280;4988;49.238;6.698;2023-04-03T02:55:41;100040.63;;;3.56;78.26
9899;BME280;4988;49.238;6.698;2023-04-03T02:58:06;100043.25;;;3.58;78.15
9899;BME280;4988;49.238;6.698;2023-04-03T03:00:32;100039.75;;;3.54;78.28
9899;BME280;4988;49.238;6.698;2023-04-03T03:02:57;100041.47;;;3.53;78.16
9899;BME280;4988;49.238;6.698;2023-04-03T03:05:23;100031.00;;;3.41;79.00
9899;BME280;4988;49.238;6.698;2023-04-03T03:07:48;100033.66;;;3.36;79.56
9899;BME280;4988;49.238;6.698;2023-04-03T03:10:13;100030.13;;;3.36;79.00
9899;BME280;4988;49.238;6.698;2023-04-03T03:12:39;100029.28;;;3.28;78.76
9899;BME280;4988;49.238;6.698;2023-04-03T03:15:06;100040.69;;;3.16;79.99
9899;BME280;4988;49.238;6.698;2023-04-03T03:17:31;100033.69;;;3.15;80.37
9899;BME280;4988;49.238;6.698;2023-04-03T03:19:57;100033.69;;;3.19;80.33
9899;BME280;4988;49.238;6.698;2023-04-03T03:22:22;100034.53;;;3.15;80.34
9899;BME280;4988;49.238;6.698;2023-04-03T03:24:47;100039.81;;;3.12;80.91
9899;BME280;4988;49.238;6.698;2023-04-03T03:27:13;100035.47;;;2.97;81.82
9899;BME280;4988;49.238;6.698;2023-04-03T03:29:38;100036.34;;;2.95;81.80
9899;BME280;4988;49.238;6.698;2023-04-03T03:32:04;100037.22;;;2.87;82.50
9899;BME280;4988;49.238;6.698;2023-04-03T03:34:29;100037.22;;;2.89;83.06
9899;BME280;4988;49.238;6.698;2023-04-03T03:36:55;100035.44;;;2.82;82.77
9899;BME280;4988;49.238;6.698;2023-04-03T03:39:20;100033.69;;;2.85;82.62
9899;BME280;4988;49.238;6.698;2023-04-03T03:41:46;100031.94;;;2.83;83.02
9899;BME280;4988;49.238;6.698;2023-04-03T03:44:11;100037.22;;;2.83;82.76
9899;BME280;4988;49.238;6.698;2023-04-03T03:46:37;100032.81;;;2.76;83.71
9899;BME280;4988;49.238;6.698;2023-04-03T03:49:02;100031.94;;;2.77;83.02
9899;BME280;4988;49.238;6.698;2023-04-03T03:51:27;100038.09;;;2.74;84.94
9899;BME280;4988;49.238;6.698;2023-04-03T03:53:53;100027.56;;;2.77;83.92
9899;BME280;4988;49.238;6.698;2023-04-03T03:56:18;100029.31;;;2.84;82.85
9899;BME280;4988;49.238;6.698;2023-04-03T03:58:43;100035.47;;;2.85;82.08
9899;BME280;4988;49.238;6.698;2023-04-03T04:01:09;100032.81;;;2.86;81.41
9899;BME280;4988;49.238;6.698;2023-04-03T04:03:34;100031.09;;;2.82;81.22
9899;BME280;4988;49.238;6.698;2023-04-03T04:05:59;100027.56;;;2.80;82.15
9899;BME280;4988;49.238;6.698;2023-04-03T04:08:25;100024.06;;;2.78;81.83
9899;BME280;4988;49.238;6.698;2023-04-03T04:10:51;100031.94;;;2.77;80.69
9899;BME280;4988;49.238;6.698;2023-04-03T04:13:16;100026.69;;;2.66;80.75
9899;BME280;4988;49.238;6.698;2023-04-03T04:15:42;100027.53;;;2.58;80.08
9899;BME280;4988;49.238;6.698;2023-04-03T04:18:08;100024.94;;;2.49;80.62
9899;BME280;4988;49.238;6.698;2023-04-03T04:20:33;100024.03;;;2.41;81.18
9899;BME280;4988;49.238;6.698;2023-04-03T04:22:58;100023.16;;;2.36;81.41
9899;BME280;4988;49.238;6.698;2023-04-03T04:25:24;100025.78;;;2.37;82.42
9899;BME280;4988;49.238;6.698;2023-04-03T04:27:49;100022.28;;;2.37;83.27
9899;BME280;4988;49.238;6.698;2023-04-03T04:30:15;100028.41;;;2.42;83.38
9899;BME280;4988;49.238;6.698;2023-04-03T04:32:40;100020.53;;;2.42;83.54
9899;BME280;4988;49.238;6.698;2023-04-03T04:35:06;100025.78;;;2.45;83.03
9899;BME280;4988;49.238;6.698;2023-04-03T04:37:31;100022.28;;;2.43;83.71
9899;BME280;4988;49.238;6.698;2023-04-03T04:39:57;100024.03;;;2.32;82.92
9899;BME280;4988;49.238;6.698;2023-04-03T04:42:22;100022.25;;;2.34;83.78
9899;BME280;4988;49.238;6.698;2023-04-03T04:44:47;100020.53;;;2.34;84.59
9899;BME280;4988;49.238;6.698;2023-04-03T04:47:13;100026.63;;;2.30;85.25
9899;BME280;4988;49.238;6.698;2023-04-03T04:49:38;100021.38;;;2.24;84.46
9899;BME280;4988;49.238;6.698;2023-04-03T04:52:04;100027.50;;;2.21;84.93
9899;BME280;4988;49.238;6.698;2023-04-03T04:54:30;100028.34;;;2.03;86.57
9899;BME280;4988;49.238;6.698;2023-04-03T04:56:55;100027.44;;;1.97;86.89
9899;BME280;4988;49.238;6.698;2023-04-03T04:59:21;100024.78;;;1.92;87.49
9899;BME280;4988;49.238;6.698;2023-04-03T05:01:46;100023.88;;;1.88;88.24
9899;BME280;4988;49.238;6.698;2023-04-03T05:04:11;100034.41;;;1.95;87.37
9899;BME280;4988;49.238;6.698;2023-04-03T05:06:38;100038.81;;;1.91;87.29
9899;BME280;4988;49.238;6.698;2023-04-03T05:09:03;100038.81;;;1.99;86.92
9899;BME280;4988;49.238;6.698;2023-04-03T05:11:29;100042.28;;;1.95;87.43
9899;BME280;4988;49.238;6.698;2023-04-03T05:13:54;100044.09;;;1.97;88.96
9899;BME280;4988;49.238;6.698;2023-04-03T05:16:19;100044.06;;;1.96;88.32
9899;BME280;4988;49.238;6.698;2023-04-03T05:18:45;100046.69;;;2.02;87.78
9899;BME280;4988;49.238;6.698;2023-04-03T05:21:10;100046.72;;;2.05;87.25
9899;BME280;4988;49.238;6.698;2023-04-03T05:23:35;100046.72;;;1.97;87.06
9899;BME280;4988;49.238;6.698;2023-04-03T05:26:01;100045.84;;;2.01;87.77
9899;BME280;4988;49.238;6.698;2023-04-03T05:28:26;100046.72;;;2.05;87.19
9899;BME280;4988;49.238;6.698;2023-04-03T05:30:56;100043.22;;;2.11;86.46
9899;BME280;4988;49.238;6.698;2023-04-03T05:33:22;100052.00;;;2.11;85.70
9899;BME280;4988;49.238;6.698;2023-04-03T05:35:47;100051.09;;;2.11;86.06
9899;BME280;4988;49.238;6.698;2023-04-03T05:38:13;100055.50;;;2.10;85.83
9899;BME280;4988;49.238;6.698;2023-04-03T05:40:38;100058.97;;;2.09;86.41
9899;BME280;4988;49.238;6.698;2023-04-03T05:43:04;100059.00;;;2.12;86.64
9899;BME280;4988;49.238;6.698;2023-04-03T05:45:29;100056.41;;;2.18;85.37
9899;BME280;4988;49.238;6.698;2023-04-03T05:47:55;100059.88;;;2.11;86.20
9899;BME280;4988;49.238;6.698;2023-04-03T05:50:20;100062.50;;;2.19;85.54
9899;BME280;4988;49.238;6.698;2023-04-03T05:52:48;100067.75;;;2.20;85.95
9899;BME280;4988;49.238;6.698;2023-04-03T05:55:14;100066.88;;;2.14;86.79
9899;BME280;4988;49.238;6.698;2023-04-03T05:57:39;100073.88;;;2.18;86.66
9899;BME280;4988;49.238;6.698;2023-04-03T06:00:06;100075.66;;;2.20;86.78
9899;BME280;4988;49.238;6.698;2023-04-03T06:02:32;100079.16;;;2.18;85.65
9899;BME280;4988;49.238;6.698;2023-04-03T06:04:57;100081.78;;;2.16;85.53
9899;BME280;4988;49.238;6.698;2023-04-03T06:07:24;100080.03;;;2.21;85.92
9899;BME280;4988;49.238;6.698;2023-04-03T06:09:52;100081.81;;;2.29;85.45
9899;BME280;4988;49.238;6.698;2023-04-03T06:12:18;100086.19;;;2.33;84.89
9899;BME280;4988;49.238;6.698;2023-04-03T06:14:43;100089.69;;;2.27;85.15
9899;BME280;4988;49.238;6.698;2023-04-03T06:17:09;100094.06;;;2.30;84.72
9899;BME280;4988;49.238;6.698;2023-04-03T06:19:35;100094.94;;;2.29;84.32
9899;BME280;4988;49.238;6.698;2023-04-03T06:22:00;100096.75;;;2.42;83.36
9899;BME280;4988;49.238;6.698;2023-04-03T06:24:26;100095.88;;;2.48;84.13
9899;BME280;4988;49.238;6.698;2023-04-03T06:26:52;100098.50;;;2.52;82.98
9899;BME280;4988;49.238;6.698;2023-04-03T06:29:21;100106.38;;;2.52;83.01
9899;BME280;4988;49.238;6.698;2023-04-03T06:31:47;100105.53;;;2.56;82.44
9899;BME280;4988;49.238;6.698;2023-04-03T06:34:13;100103.78;;;2.60;82.31
9899;BME280;4988;49.238;6.698;2023-04-03T06:36:39;100115.19;;;2.67;81.53
9899;BME280;4988;49.238;6.698;2023-04-03T06:39:05;100109.94;;;2.73;81.26
9899;BME280;4988;49.238;6.698;2023-04-03T06:41:30;100109.97;;;2.76;80.53
9899;BME280;4988;49.238;6.698;2023-04-03T06:43:56;100106.44;;;2.86;79.61
9899;BME280;4988;49.238;6.698;2023-04-03T06:46:23;100109.97;;;2.95;79.17
9899;BME280;4988;49.238;6.698;2023-04-03T06:48:50;100114.38;;;3.08;78.18
9899;BME280;4988;49.238;6.698;2023-04-03T06:51:23;100107.34;;;3.19;77.89
9899;BME280;4988;49.238;6.698;2023-04-03T06:53:50;100106.44;;;3.25;76.76
9899;BME280;4988;49.238;6.698;2023-04-03T06:56:16;100109.09;;;3.30;75.66
9899;BME280;4988;49.238;6.698;2023-04-03T06:58:42;100113.47;;;3.43;75.03
9899;BME280;4988;49.238;6.698;2023-04-03T07:01:10;100115.19;;;3.57;75.36
9899;BME280;4988;49.238;6.698;2023-04-03T07:03:37;100108.16;;;3.62;75.52
9899;BME280;4988;49.238;6.698;2023-04-03T07:06:04;100110.75;;;3.74;73.81
9899;BME280;4988;49.238;6.698;2023-04-03T07:08:31;100106.38;;;3.82;72.88
9899;BME280;4988;49.238;6.698;2023-04-03T07:10:56;100110.72;;;3.96;73.05
9899;BME280;4988;49.238;6.698;2023-04-03T07:13:21;100110.66;;;4.05;70.86
9899;BME280;4988;49.238;6.698;2023-04-03T07:15:47;100115.91;;;4.19;70.65
9899;BME280;4988;49.238;6.698;2023-04-03T07:18:13;100112.34;;;4.28;70.53
9899;BME280;4988;49.238;6.698;2023-04-03T07:20:38;100114.88;;;4.43;70.40
9899;BME280;4988;49.238;6.698;2023-04-03T07:23:04;100121.84;;;4.57;68.70
9899;BME280;4988;49.238;6.698;2023-04-03T07:25:29;100112.13;;;4.66;69.15
9899;BME280;4988;49.238;6.698;2023-04-03T07:27:55;100112.91;;;4.82;67.44
9899;BME280;4988;49.238;6.698;2023-04-03T07:30:21;100115.44;;;4.95;66.55
9899;BME280;4988;49.238;6.698;2023-04-03T07:32:47;100106.56;;;5.11;66.65
9899;BME280;4988;49.238;6.698;2023-04-03T07:35:12;100109.03;;;5.27;65.46
9899;BME280;4988;49.238;6.698;2023-04-03T07:37:38;100108.19;;;5.26;65.17
9899;BME280;4988;49.238;6.698;2023-04-03T07:40:04;100109.84;;;5.35;64.49
9899;BME280;4988;49.238;6.698;2023-04-03T07:42:30;100107.09;;;5.51;63.94
9899;BME280;4988;49.238;6.698;2023-04-03T07:44:55;100105.16;;;5.65;63.49
9899;BME280;4988;49.238;6.698;2023-04-03T07:47:21;100100.63;;;5.76;61.93
9899;BME280;4988;49.238;6.698;2023-04-03T07:49:47;100109.47;;;5.75;61.59
9899;BME280;4988;49.238;6.698;2023-04-03T07:52:13;100112.88;;;5.84;60.90
9899;BME280;4988;49.238;6.698;2023-04-03T07:54:40;100104.09;;;5.83;61.46
9899;BME280;4988;49.238;6.698;2023-04-03T07:57:06;100105.81;;;5.89;62.78
9899;BME280;4988;49.238;6.698;2023-04-03T07:59:32;100105.75;;;5.92;62.10
9899;BME280;4988;49.238;6.698;2023-04-03T08:01:57;100107.47;;;5.98;61.46
9899;BME280;4988;49.238;6.698;2023-04-03T08:04:22;100097.53;;;6.20;61.16
9899;BME280;4988;49.238;6.698;2023-04-03T08:06:48;100099.22;;;6.27;59.63
9899;BME280;4988;49.238;6.698;2023-04-03T08:09:15;100106.13;;;6.37;59.22
9899;BME280;4988;49.238;6.698;2023-04-03T08:11:41;100114.75;;;6.50;60.15
9899;BME280;4988;49.238;6.698;2023-04-03T08:14:06;100120.09;;;6.47;56.81
9899;BME280;4988;49.238;6.698;2023-04-03T08:16:32;100114.09;;;6.33;56.96
9899;BME280;4988;49.238;6.698;2023-04-03T08:18:58;100116.59;;;6.45;58.90
9899;BME280;4988;49.238;6.698;2023-04-03T08:21:24;100111.88;;;6.67;59.30
9899;BME280;4988;49.238;6.698;2023-04-03T08:23:51;100113.31;;;6.90;60.25
9899;BME280;4988;49.238;6.698;2023-04-03T08:26:19;100106.88;;;7.06;59.35
9899;BME280;4988;49.238;6.698;2023-04-03T08:28:46;100107.63;;;7.13;59.70
9899;BME280;4988;49.238;6.698;2023-04-03T08:31:14;100117.28;;;7.19;61.05
9899;BME280;4988;49.238;6.698;2023-04-03T08:33:40;100114.72;;;7.13;59.29
9899;BME280;4988;49.238;6.698;2023-04-03T08:36:14;100117.44;;;7.10;60.54
9899;BME280;4988;49.238;6.698;2023-04-03T08:38:40;100115.50;;;7.19;61.23
9899;BME280;4988;49.238;6.698;2023-04-03T08:41:43;100115.34;;;7.29;60.20
9899;BME280;4988;49.238;6.698;2023-04-03T08:47:01;100112.94;;;7.66;60.69
9899;BME280;4988;49.238;6.698;2023-04-03T08:49:33;100109.00;;;7.87;59.33
9899;BME280;4988;49.238;6.698;2023-04-03T08:52:04;100120.41;;;7.89;59.19
9899;BME280;4988;49.238;6.698;2023-04-03T08:54:34;100115.41;;;7.76;57.17
9899;BME280;4988;49.238;6.698;2023-04-03T08:57:02;100116.78;;;7.48;58.02
9899;BME280;4988;49.238;6.698;2023-04-03T08:59:32;100119.88;;;7.20;57.64
9899;BME280;4988;49.238;6.698;2023-04-03T09:02:01;100123.69;;;7.04;57.77
9899;BME280;4988;49.238;6.698;2023-04-03T09:04:31;100135.50;;;6.80;58.20
9899;BME280;4988;49.238;6.698;2023-04-03T09:07:03;100131.38;;;6.62;58.64
9899;BME280;4988;49.238;6.698;2023-04-03T09:09:39;100131.47;;;6.54;58.84
9899;BME280;4988;49.238;6.698;2023-04-03T09:14:52;100119.41;;;6.95;59.04
9899;BME280;4988;49.238;6.698;2023-04-03T09:17:35;100117.84;;;7.36;58.90
9899;BME280;4988;49.238;6.698;2023-04-03T09:23:39;100113.75;;;7.70;55.95
9899;BME280;4988;49.238;6.698;2023-04-03T09:26:11;100108.03;;;7.92;56.19
9899;BME280;4988;49.238;6.698;2023-04-03T09:28:40;100114.63;;;8.16;56.91
9899;BME280;4988;49.238;6.698;2023-04-03T09:31:23;100100.28;;;8.25;54.77
9899;BME280;4988;49.238;6.698;2023-04-03T09:33:52;100119.06;;;8.14;55.23
9899;BME280;4988;49.238;6.698;2023-04-03T09:36:44;100112.19;;;8.05;54.24
9899;BME280;4988;49.238;6.698;2023-04-03T09:39:30;100116.53;;;8.08;55.20
9899;BME280;4988;49.238;6.698;2023-04-03T09:42:04;100110.34;;;8.09;55.23
9899;BME280;4988;49.238;6.698;2023-04-03T09:44:35;100108.91;;;7.92;54.96
9899;BME280;4988;49.238;6.698;2023-04-03T09:47:24;100111.69;;;7.84;55.30
9899;BME280;4988;49.238;6.698;2023-04-03T09:49:50;100105.41;;;7.90;57.16
9899;BME280;4988;49.238;6.698;2023-04-03T09:52:26;100103.91;;;7.77;55.81
9899;BME280;4988;49.238;6.698;2023-04-03T09:54:52;100099.44;;;7.77;55.67
9899;BME280;4988;49.238;6.698;2023-04-03T09:57:17;100100.09;;;7.90;56.11
9899;BME280;4988;49.238;6.698;2023-04-03T10:00:04;100107.25;;;7.86;56.87
9899;BME280;4988;49.238;6.698;2023-04-03T10:02:35;100109.91;;;7.86;54.34
9899;BME280;4988;49.238;6.698;2023-04-03T10:05:01;100114.97;;;7.99;55.10
9899;BME280;4988;49.238;6.698;2023-04-03T10:07:28;100111.44;;;7.97;54.69
9899;BME280;4988;49.238;6.698;2023-04-03T10:10:23;100113.91;;;8.08;56.25
9899;BME280;4988;49.238;6.698;2023-04-03T10:13:04;100099.78;;;8.49;55.92
9899;BME280;4988;49.238;6.698;2023-04-03T10:15:36;100102.50;;;8.48;53.52
9899;BME280;4988;49.238;6.698;2023-04-03T10:20:52;100108.09;;;8.32;53.42
9899;BME280;4988;49.238;6.698;2023-04-03T10:23:27;100107.03;;;7.97;53.85
9899;BME280;4988;49.238;6.698;2023-04-03T10:26:24;100109.34;;;7.67;54.77
9899;BME280;4988;49.238;6.698;2023-04-03T10:31:48;100097.19;;;7.57;55.40
9899;BME280;4988;49.238;6.698;2023-04-03T10:34:32;100100.91;;;7.47;55.57
9899;BME280;4988;49.238;6.698;2023-04-03T10:37:24;100097.31;;;7.51;54.98
9899;BME280;4988;49.238;6.698;2023-04-03T10:40:00;100093.72;;;7.53;55.87
9899;BME280;4988;49.238;6.698;2023-04-03T10:42:55;100092.78;;;7.57;55.27
9899;BME280;4988;49.238;6.698;2023-04-03T10:48:23;100089.88;;;7.71;55.03
9899;BME280;4988;49.238;6.698;2023-04-03T10:51:25;100096.22;;;7.63;54.15
9899;BME280;4988;49.238;6.698;2023-04-03T10:54:13;100088.56;;;7.46;54.29
9899;BME280;4988;49.238;6.698;2023-04-03T10:56:48;100086.69;;;7.51;53.76
9899;BME280;4988;49.238;6.698;2023-04-03T10:59:25;100081.38;;;7.54;53.97
9899;BME280;4988;49.238;6.698;2023-04-03T11:01:56;100068.31;;;7.43;53.90
9899;BME280;4988;49.238;6.698;2023-04-03T11:04:26;100079.72;;;7.47;54.61
9899;BME280;4988;49.238;6.698;2023-04-03T11:07:01;100066.06;;;7.68;55.55
9899;BME280;4988;49.238;6.698;2023-04-03T11:09:37;100076.13;;;7.96;55.96
9899;BME280;4988;49.238;6.698;2023-04-03T11:12:26;100075.81;;;8.12;54.67
9899;BME280;4988;49.238;6.698;2023-04-03T11:14:55;100074.13;;;8.08;54.35
9899;BME280;4988;49.238;6.698;2023-04-03T11:17:27;100075.88;;;8.09;54.26
9899;BME280;4988;49.238;6.698;2023-04-03T11:25:30;100073.16;;;8.12;54.00
9899;BME280;4988;49.238;6.698;2023-04-03T11:28:05;100075.56;;;8.23;54.53
9899;BME280;4988;49.238;6.698;2023-04-03T11:33:32;100072.44;;;8.03;52.66
9899;BME280;4988;49.238;6.698;2023-04-03T11:36:07;100063.50;;;8.08;53.71
9899;BME280;4988;49.238;6.698;2023-04-03T11:38:42;100067.66;;;8.21;54.53
9899;BME280;4988;49.238;6.698;2023-04-03T11:41:08;100067.38;;;8.33;53.96
9899;BME280;4988;49.238;6.698;2023-04-03T11:43:41;100069.84;;;8.43;52.48
9899;BME280;4988;49.238;6.698;2023-04-03T11:46:08;100064.44;;;8.49;51.62
9899;BME280;4988;49.238;6.698;2023-04-03T11:51:45;100069.13;;;8.34;50.84
9899;BME280;4988;49.238;6.698;2023-04-03T11:53:46;100060.28;;;8.35;50.04
9899;BME280;4988;49.238;6.698;2023-04-03T12:01:52;100057.00;;;8.24;50.60
9899;BME280;4988;49.238;6.698;2023-04-03T12:04:21;100051.81;;;8.18;49.46
9899;BME280;4988;49.238;6.698;2023-04-03T12:12:01;100049.53;;;8.42;50.72
9899;BME280;4988;49.238;6.698;2023-04-03T12:14:28;100063.56;;;8.48;50.16
9899;BME280;4988;49.238;6.698;2023-04-03T12:16:54;100049.34;;;8.51;49.72
9899;BME280;4988;49.238;6.698;2023-04-03T12:19:38;100043.72;;;8.65;49.20
9899;BME280;4988;49.238;6.698;2023-04-03T12:22:11;100038.00;;;8.82;50.91
9899;BME280;4988;49.238;6.698;2023-04-03T12:24:41;100027.69;;;9.04;52.82
9899;BME280;4988;49.238;6.698;2023-04-03T12:29:59;100028.50;;;9.08;49.98
9899;BME280;4988;49.238;6.698;2023-04-03T12:35:34;100035.47;;;8.76;48.95
9899;BME280;4988;49.238;6.698;2023-04-03T12:46:18;100029.94;;;8.49;51.37
9899;BME280;4988;49.238;6.698;2023-04-03T12:51:13;100032.19;;;8.25;51.70
9899;BME280;4988;49.238;6.698;2023-04-03T12:53:39;100019.59;;;8.35;51.92
9899;BME280;4988;49.238;6.698;2023-04-03T12:56:24;100029.91;;;8.50;52.58
9899;BME280;4988;49.238;6.698;2023-04-03T12:58:51;100026.50;;;8.42;50.59
9899;BME280;4988;49.238;6.698;2023-04-03T13:01:20;100024.66;;;8.46;50.81
9899;BME280;4988;49.238;6.698;2023-04-03T13:03:57;100020.63;;;8.28;50.98
9899;BME280;4988;49.238;6.698;2023-04-03T13:06:42;100020.72;;;8.25;51.94
9899;BME280;4988;49.238;6.698;2023-04-03T13:09:28;100017.13;;;8.27;51.57
9899;BME280;4988;49.238;6.698;2023-04-03T13:12:23;100015.09;;;8.38;51.72
9899;BME280;4988;49.238;6.698;2023-04-03T13:14:54;100016.88;;;8.38;50.63
9899;BME280;4988;49.238;6.698;2023-04-03T13:17:20;100010.91;;;8.28;51.86
9899;BME280;4988;49.238;6.698;2023-04-03T13:19:46;100005.72;;;8.24;51.54
9899;BME280;4988;49.238;6.698;2023-04-03T13:22:29;100008.47;;;8.19;50.78
9899;BME280;4988;49.238;6.698;2023-04-03T13:25:00;100011.00;;;8.24;49.94
9899;BME280;4988;49.238;6.698;2023-04-03T13:27:30;100010.16;;;8.23;50.73
9899;BME280;4988;49.238;6.698;2023-04-03T13:29:58;99998.41;;;8.33;51.55
9899;BME280;4988;49.238;6.698;2023-04-03T13:32:26;100013.47;;;8.31;49.81
9899;BME280;4988;49.238;6.698;2023-04-03T13:34:52;100006.66;;;8.21;49.52
9899;BME280;4988;49.238;6.698;2023-04-03T13:37:28;100005.09;;;8.12;50.07
9899;BME280;4988;49.238;6.698;2023-04-03T13:42:34;100009.31;;;8.21;50.73
9899;BME280;4988;49.238;6.698;2023-04-03T13:45:24;100018.25;;;8.17;50.49
9899;BME280;4988;49.238;6.698;2023-04-03T13:48:06;100011.19;;;8.16;50.40
9899;BME280;4988;49.238;6.698;2023-04-03T13:50:33;100004.72;;;8.29;50.65
9899;BME280;4988;49.238;6.698;2023-04-03T13:53:12;100001.97;;;8.32;48.75
9899;BME280;4988;49.238;6.698;2023-04-03T13:56:06;99998.41;;;8.33;49.12
9899;BME280;4988;49.238;6.698;2023-04-03T13:58:33;100001.03;;;8.35;49.86
9899;BME280;4988;49.238;6.698;2023-04-03T14:01:17;99990.25;;;8.43;50.47
9899;BME280;4988;49.238;6.698;2023-04-03T14:03:58;100007.03;;;8.43;51.20
9899;BME280;4988;49.238;6.698;2023-04-03T14:06:25;99998.97;;;8.49;49.89
9899;BME280;4988;49.238;6.698;2023-04-03T14:08:51;99995.47;;;8.46;49.14
9899;BME280;4988;49.238;6.698;2023-04-03T14:11:28;99988.72;;;8.32;48.36
9899;BME280;4988;49.238;6.698;2023-04-03T14:13:56;100002.97;;;8.28;48.94
9899;BME280;4988;49.238;6.698;2023-04-03T14:16:27;99998.66;;;8.24;48.85
9899;BME280;4988;49.238;6.698;2023-04-03T14:18:54;99999.41;;;8.28;49.06
9899;BME280;4988;49.238;6.698;2023-04-03T14:21:21;99997.31;;;8.42;49.40
9899;BME280;4988;49.238;6.698;2023-04-03T14:23:46;100004.22;;;8.52;48.83
9899;BME280;4988;49.238;6.698;2023-04-03T14:26:15;99997.00;;;8.58;49.01
9899;BME280;4988;49.238;6.698;2023-04-03T14:28:42;99994.47;;;8.53;48.91
9899;BME280;4988;49.238;6.698;2023-04-03T14:31:08;99996.13;;;8.57;49.48
9899;BME280;4988;49.238;6.698;2023-04-03T14:33:35;99996.25;;;8.51;48.73
9899;BME280;4988;49.238;6.698;2023-04-03T14:36:11;99990.25;;;8.41;48.45
9899;BME280;4988;49.238;6.698;2023-04-03T14:38:37;99986.06;;;8.32;49.38